Terminal Aerodrome Forecast
Issued by NWS

Home | Current Version | Previous Version | Text Only | Print | Product List | Glossary On
Versions: 1 2 3 4 5 6 7 8 9 10 11 12 13 14 15 16 17 18 19 20 21 22
000
FTUS43 KGRB 231700
TAFMTW
TAF
KMTW 231726Z 2318/2418 17011G16KT 1 1/2SM BR OVC002
      TEMPO 2318/2321 3SM -DZ BR SCT002 OVC009
     FM232100 19006KT 5SM BR BKN012 OVC025
      TEMPO 2321/2401 P6SM NSW SCT012 OVC025
     FM240100 18004KT 4SM BR BKN015 OVC030
     FM240500 VRB03KT 4SM BR OVC010
     FM240900 VRB03KT 3SM BR OVC006
     FM241500 01008KT 5SM BR OVC008=

USA.gov is the U.S. government's official web portal to all federal, state and local government web resources and services.